Time;durP1;ratioP1;P1;durP2;ratioP2;P2;SDS_P1;SDS_P2;PMS_P1;PMS_P2;Temp;Humidity;BMP_temperature;BMP_pressure;BME280_temperature;BME280_humidity;BME280_pressure;Samples;Min_cycle;Max_cycle;Signal;HPM_P1;HPM_P2
2022/01/20 00:03:35;;;;;;;1.40;0.80;;;2.10;1.40;;;2.48;100.00;95919.69;646656;216;31565;-75
2022/01/20 00:09:32;;;;;;;0.60;0.60;;;2.20;1.40;;;2.59;100.00;95915.70;645374;212;31667;-75
2022/01/20 00:26:20;;;;;;;1.50;1.40;;;2.20;1.40;;;2.66;100.00;95924.04;644774;212;31991;-75
2022/01/20 00:29:01;;;;;;;1.52;0.70;;;2.20;1.40;;;2.60;100.00;95912.71;619245;222;32305;-77
2022/01/20 00:31:50;;;;;;;0.90;0.80;;;2.20;1.40;;;2.71;100.00;95924.22;646786;212;31525;-76
2022/01/20 00:38:49;;;;;;;1.33;1.23;;;2.30;1.40;;;2.66;100.00;95916.70;646587;216;31500;-77
2022/01/20 00:41:36;;;;;;;3.60;1.55;;;2.30;1.40;;;2.67;100.00;95923.14;646222;216;32493;-76
2022/01/20 00:44:18;;;;;;;2.08;0.93;;;2.30;1.40;;;2.64;100.00;95909.13;645700;216;31604;-75
2022/01/20 00:47:01;;;;;;;0.80;0.70;;;2.30;1.40;;;2.66;100.00;95910.01;646969;216;31592;-76
2022/01/20 00:49:44;;;;;;;1.52;0.90;;;2.30;1.40;;;2.68;100.00;95906.19;619062;226;31858;-76
2022/01/20 00:52:32;;;;;;;0.80;0.80;;;2.30;1.40;;;2.77;100.00;95907.40;618776;222;32489;-75
2022/01/20 00:55:14;;;;;;;1.57;1.40;;;2.30;1.40;;;2.69;100.00;95916.48;646178;212;32061;-73
2022/01/20 00:57:56;;;;;;;1.23;1.00;;;2.30;1.40;;;2.66;100.00;95912.47;646139;216;31741;-73
2022/01/20 01:00:37;;;;;;;1.90;1.30;;;2.30;1.40;;;2.73;100.00;95916.77;647016;212;31436;-76
2022/01/20 01:03:21;;;;;;;1.70;1.40;;;2.40;1.40;;;2.75;100.00;95916.90;646866;216;31955;-75
2022/01/20 01:06:22;;;;;;;1.10;0.88;;;2.30;1.40;;;2.76;100.00;95906.15;641814;212;31771;-77
2022/01/20 01:08:54;;;;;;;1.40;1.30;;;2.40;1.40;;;2.71;100.00;95912.66;646685;216;31955;-72
2022/01/20 01:11:37;;;;;;;0.98;0.70;;;2.30;1.40;;;2.74;100.00;95928.28;646849;216;31841;-73
2022/01/20 01:14:20;;;;;;;1.12;0.73;;;2.40;1.40;;;2.77;100.00;95918.84;618614;222;31955;-75
2022/01/20 01:20:11;;;;;;;1.70;1.15;;;2.30;1.40;;;2.72;100.00;95925.09;645987;216;31604;-75
2022/01/20 01:22:42;;;;;;;1.12;0.90;;;2.30;1.40;;;2.73;100.00;95918.95;647196;216;32213;-73
2022/01/20 01:25:24;;;;;;;1.70;1.60;;;2.30;1.40;;;2.77;100.00;95928.65;646383;212;42168;-72
2022/01/20 01:28:05;;;;;;;2.05;0.75;;;2.30;1.40;;;2.73;100.00;95921.80;646471;216;31488;-76
2022/01/20 01:31:18;;;;;;;1.70;0.75;;;2.30;1.40;;;2.77;100.00;95924.69;619451;222;31826;-76
2022/01/20 01:35:56;;;;;;;3.00;0.90;;;2.30;1.40;;;2.71;100.00;95927.92;647664;216;31532;-76
2022/01/20 01:38:41;;;;;;;0.80;0.80;;;2.30;1.40;;;2.74;100.00;95912.93;647064;216;31583;-76
2022/01/20 01:41:26;;;;;;;0.80;0.80;;;2.30;1.40;;;2.72;100.00;95919.47;646379;212;31534;-74
2022/01/20 01:44:10;;;;;;;2.05;0.93;;;2.30;1.40;;;2.69;100.00;95918.73;642236;218;31528;-77
2022/01/20 01:46:56;;;;;;;1.50;0.60;;;2.30;1.40;;;2.80;100.00;95898.95;646303;212;31522;-73
2022/01/20 01:49:37;;;;;;;2.15;1.10;;;2.40;1.40;;;2.70;100.00;95916.45;645822;212;31594;-74
2022/01/20 01:52:22;;;;;;;0.50;0.50;;;2.30;1.40;;;2.72;100.00;95899.19;646749;212;31555;-76
2022/01/20 01:55:04;;;;;;;1.90;1.20;;;2.30;1.40;;;2.73;100.00;95892.55;647091;212;31503;-76
2022/01/20 01:57:46;;;;;;;0.70;0.70;;;2.30;1.40;;;2.79;100.00;95901.32;647350;212;31624;-74
2022/01/20 02:00:34;;;;;;;0.95;0.85;;;2.40;1.40;;;2.80;100.00;95899.59;647510;215;31781;-77
2022/01/20 02:03:23;;;;;;;0.60;0.50;;;2.30;1.40;;;2.75;100.00;95901.91;646604;212;31520;-76
2022/01/20 02:22:46;;;;;;;1.50;0.80;;;2.30;1.40;;;2.70;100.00;95909.69;646754;216;31516;-75
2022/01/20 02:25:33;;;;;;;1.60;0.80;;;2.30;1.40;;;2.69;100.00;95901.44;619307;222;31891;-76
2022/01/20 02:28:15;;;;;;;1.55;0.82;;;2.20;1.40;;;2.71;100.00;95896.91;620918;222;31878;-77
2022/01/20 02:30:57;;;;;;;1.55;1.45;;;2.20;1.40;;;2.67;100.00;95894.18;645806;216;31654;-77
2022/01/20 02:36:03;;;;;;;1.80;1.15;;;2.20;1.40;;;2.61;100.00;95901.95;628428;220;31914;-76
2022/01/20 02:38:52;;;;;;;1.00;0.80;;;2.20;1.40;;;2.56;100.00;95906.28;647157;212;42286;-76
2022/01/20 02:47:03;;;;;;;3.05;0.75;;;2.00;1.40;;;2.45;100.00;95892.19;631447;222;33167;-77
2022/01/20 02:49:51;;;;;;;1.00;0.70;;;2.00;1.40;;;2.40;100.00;95896.14;642048;215;31554;-75
2022/01/20 02:52:39;;;;;;;2.00;1.20;;;2.00;1.40;;;2.41;100.00;95881.50;646939;212;31542;-77
2022/01/20 02:55:23;;;;;;;0.40;0.32;;;2.00;1.40;;;2.38;100.00;95872.67;647915;212;31564;-75
2022/01/20 02:58:06;;;;;;;0.70;0.60;;;1.90;1.40;;;2.37;100.00;95865.49;646909;216;31645;-77
2022/01/20 03:00:54;;;;;;;1.92;1.05;;;1.90;1.40;;;2.28;100.00;95862.94;645106;216;31816;-75
2022/01/20 03:03:42;;;;;;;1.40;1.10;;;1.90;1.40;;;2.28;100.00;95850.84;647788;216;42129;-77
2022/01/20 03:06:23;;;;;;;0.90;0.90;;;1.90;1.40;;;2.29;100.00;95866.27;639249;213;31740;-77
2022/01/20 03:09:05;;;;;;;1.30;0.80;;;1.90;1.40;;;2.32;100.00;95869.85;646798;216;31570;-76
2022/01/20 03:11:49;;;;;;;1.67;0.90;;;1.90;1.40;;;2.28;100.00;95870.59;646972;212;31470;-75
2022/01/20 03:14:37;;;;;;;0.90;0.73;;;1.90;1.40;;;2.35;100.00;95864.87;646890;212;32095;-77
2022/01/20 03:17:24;;;;;;;0.90;0.80;;;1.90;1.40;;;2.33;100.00;95872.32;645874;212;31527;-75
2022/01/20 03:20:07;;;;;;;0.93;0.90;;;1.90;1.40;;;2.20;100.00;95875.13;646381;212;31704;-73
2022/01/20 03:22:51;;;;;;;1.27;0.50;;;1.80;1.40;;;2.00;100.00;95859.41;647824;212;31644;-77
2022/01/20 03:25:32;;;;;;;1.10;0.80;;;1.60;1.40;;;1.86;100.00;95862.14;620154;222;32432;-76
2022/01/20 03:28:14;;;;;;;0.90;0.50;;;1.50;1.40;;;1.76;100.00;95867.91;647782;216;32238;-77
2022/01/20 03:30:56;;;;;;;0.90;0.68;;;1.40;1.40;;;1.77;100.00;95863.03;646878;216;31535;-76
2022/01/20 03:35:58;;;;;;;0.52;0.40;;;1.30;1.40;;;1.64;100.00;95874.78;647109;216;31483;-76
2022/01/20 03:38:39;;;;;;;1.00;0.70;;;1.20;1.40;;;1.59;100.00;95871.03;645978;216;31513;-76
2022/01/20 03:41:23;;;;;;;1.20;0.80;;;1.20;1.40;;;1.60;100.00;95865.93;648970;216;31502;-77
2022/01/20 03:44:05;;;;;;;0.70;0.50;;;1.20;1.40;;;1.52;100.00;95878.48;647099;216;31523;-76
2022/01/20 03:46:47;;;;;;;1.30;1.10;;;1.10;1.40;;;1.43;100.00;95876.19;619925;226;32405;-77
2022/01/20 03:49:51;;;;;;;1.90;0.80;;;1.10;1.40;;;1.42;100.00;95875.00;646057;212;31672;-74
2022/01/20 03:52:22;;;;;;;0.90;0.80;;;1.00;1.40;;;1.38;100.00;95880.09;648156;212;31522;-77
2022/01/20 03:55:06;;;;;;;0.40;0.40;;;0.90;1.40;;;1.29;100.00;95885.08;646943;216;42321;-75
2022/01/20 03:57:49;;;;;;;0.70;0.70;;;0.90;1.40;;;1.20;100.00;95885.15;618948;226;42616;-76
2022/01/20 04:00:37;;;;;;;0.70;0.50;;;0.80;1.40;;;1.16;100.00;95891.16;646665;216;31562;-74
2022/01/20 04:03:25;;;;;;;1.20;0.50;;;0.80;1.40;;;1.12;100.00;95881.02;620546;225;42655;-76
2022/01/20 04:06:12;;;;;;;1.40;0.52;;;0.70;1.40;;;1.14;100.00;95891.20;643876;216;42348;-76
2022/01/20 04:09:00;;;;;;;0.70;0.50;;;0.80;1.40;;;1.11;100.00;95886.32;646476;216;42170;-77
2022/01/20 04:11:42;;;;;;;3.10;1.00;;;0.70;1.40;;;1.09;100.00;95894.82;648073;216;31483;-77
2022/01/20 04:14:26;;;;;;;0.43;0.40;;;0.70;1.40;;;1.08;100.00;95879.03;619665;222;31848;-77
2022/01/20 04:17:18;;;;;;;0.60;0.60;;;0.70;1.40;;;1.10;100.00;95876.78;645888;216;42726;-76
2022/01/20 04:19:59;;;;;;;0.90;0.57;;;0.70;1.40;;;1.04;100.00;95886.33;646629;216;31582;-76
2022/01/20 04:22:41;;;;;;;1.05;0.60;;;0.70;1.40;;;1.02;100.00;95879.72;646272;212;31646;-77
2022/01/20 04:25:22;;;;;;;0.60;0.50;;;0.70;1.40;;;0.97;100.00;95880.08;647059;216;31713;-77
2022/01/20 04:28:06;;;;;;;0.68;0.50;;;0.60;1.40;;;0.95;100.00;95871.41;647204;216;42142;-76
2022/01/20 04:30:48;;;;;;;0.45;0.45;;;0.60;1.40;;;0.98;100.00;95870.07;646329;216;42891;-76
2022/01/20 04:35:57;;;;;;;0.60;0.60;;;0.60;1.40;;;0.95;100.00;95862.95;641886;215;31588;-75
2022/01/20 04:38:42;;;;;;;0.50;0.50;;;0.60;1.40;;;0.96;100.00;95864.95;645831;216;31462;-76
2022/01/20 04:41:30;;;;;;;0.73;0.60;;;0.60;1.40;;;0.93;100.00;95864.53;646728;212;42116;-76
2022/01/20 04:44:32;;;;;;;0.68;0.45;;;0.60;1.40;;;0.92;100.00;95861.54;621540;222;31890;-76
2022/01/20 04:47:17;;;;;;;0.60;0.30;;;0.50;1.40;;;0.94;100.00;95867.42;647243;212;42725;-76
2022/01/20 04:58:17;;;;;;;2.40;1.40;;;0.60;1.40;;;0.98;100.00;95862.60;646180;212;31502;-74
2022/01/20 05:01:04;;;;;;;1.10;1.00;;;0.60;1.40;;;0.97;100.00;95865.89;619674;226;31873;-77
2022/01/20 05:03:46;;;;;;;1.00;0.60;;;0.60;1.40;;;0.95;100.00;95856.17;648166;216;31546;-77
2022/01/20 05:06:28;;;;;;;1.10;0.90;;;0.60;1.40;;;0.91;100.00;95855.86;612530;226;32064;-76
2022/01/20 05:09:16;;;;;;;0.40;0.30;;;0.60;1.40;;;0.98;100.00;95866.70;646450;216;42123;-78
2022/01/20 05:11:59;;;;;;;1.20;0.50;;;0.50;1.40;;;0.96;100.00;95857.38;647043;216;31630;-76
2022/01/20 05:14:33;;;;;;;0.60;0.60;;;0.60;1.40;;;0.99;100.00;95860.80;620853;226;31901;-76
2022/01/20 05:17:15;;;;;;;1.62;1.52;;;0.60;1.40;;;1.03;100.00;95857.75;647772;212;31518;-76
2022/01/20 05:19:57;;;;;;;0.50;0.50;;;0.60;1.40;;;1.02;100.00;95849.93;646850;216;42606;-77
2022/01/20 05:22:38;;;;;;;0.73;0.73;;;0.60;1.40;;;0.99;100.00;95857.93;647248;216;31613;-76
2022/01/20 05:25:22;;;;;;;2.25;0.65;;;0.60;1.40;;;0.98;100.00;95859.50;646358;216;42147;-76
2022/01/20 05:28:10;;;;;;;0.80;0.80;;;0.60;1.40;;;1.05;100.00;95859.55;620335;223;42494;-76
2022/01/20 05:30:59;;;;;;;0.45;0.45;;;0.70;1.40;;;1.01;100.00;95859.08;646565;216;42122;-75
2022/01/20 05:35:56;;;;;;;0.50;0.43;;;0.70;1.40;;;1.08;100.00;95839.69;632858;221;31713;-76
2022/01/20 05:38:40;;;;;;;1.60;0.50;;;0.70;1.40;;;1.14;100.00;95847.48;646994;216;31522;-76
2022/01/20 05:41:22;;;;;;;1.20;1.10;;;0.70;1.40;;;1.12;100.00;95853.91;646550;212;42144;-75
2022/01/20 05:44:12;;;;;;;0.60;0.50;;;0.80;1.40;;;1.17;100.00;95853.84;632094;221;32578;-76
2022/01/20 05:47:06;;;;;;;1.07;1.00;;;0.80;1.40;;;1.15;100.00;95858.23;617040;226;32007;-76
2022/01/20 05:49:42;;;;;;;1.00;0.50;;;0.80;1.40;;;1.12;100.00;95859.82;646843;216;42692;-76
2022/01/20 05:52:23;;;;;;;0.70;0.60;;;0.80;1.40;;;1.17;100.00;95854.33;647461;216;31503;-76
2022/01/20 05:55:06;;;;;;;1.00;0.70;;;0.70;1.40;;;1.09;100.00;95857.60;643393;216;31476;-76
2022/01/20 05:57:47;;;;;;;0.60;0.50;;;0.80;1.40;;;1.13;100.00;95852.53;620913;215;42485;-76
2022/01/20 06:00:30;;;;;;;2.30;0.57;;;0.80;1.40;;;1.08;100.00;95860.83;646849;216;42157;-76
2022/01/20 06:05:59;;;;;;;1.60;1.00;;;0.70;1.40;;;1.12;100.00;95862.22;647051;216;31486;-75
2022/01/20 06:08:41;;;;;;;1.70;1.35;;;0.70;1.40;;;1.10;100.00;95850.84;648613;216;42101;-77
2022/01/20 06:11:23;;;;;;;2.65;1.00;;;0.70;1.40;;;1.05;100.00;95851.22;646424;216;42111;-77
2022/01/20 06:14:07;;;;;;;0.70;0.70;;;0.70;1.40;;;1.04;100.00;95857.92;647723;212;42124;-78
2022/01/20 06:16:49;;;;;;;2.10;0.80;;;0.70;1.40;;;1.08;100.00;95862.81;646896;216;31504;-77
2022/01/20 06:19:31;;;;;;;0.90;0.90;;;0.70;1.40;;;1.14;100.00;95858.70;642996;217;31644;-76
2022/01/20 06:22:13;;;;;;;0.60;0.52;;;0.70;1.40;;;1.13;100.00;95863.58;646646;216;31507;-77
2022/01/20 06:24:55;;;;;;;1.67;1.10;;;0.80;1.40;;;1.13;100.00;95864.76;647018;216;31470;-77
2022/01/20 06:27:40;;;;;;;0.70;0.50;;;0.80;1.40;;;1.15;100.00;95870.62;647378;216;31476;-76
2022/01/20 06:30:24;;;;;;;2.00;1.10;;;0.80;1.40;;;1.15;100.00;95873.23;646963;216;32200;-76
2022/01/20 06:35:51;;;;;;;1.30;1.20;;;0.80;1.40;;;1.17;100.00;95871.63;620675;222;31901;-76
2022/01/20 06:41:07;;;;;;;0.60;0.60;;;0.80;1.40;;;1.22;100.00;95860.52;646379;216;31470;-76
2022/01/20 06:43:49;;;;;;;0.80;0.60;;;0.80;1.40;;;1.22;100.00;95855.02;646280;212;42164;-77
2022/01/20 06:46:36;;;;;;;0.50;0.40;;;0.80;1.40;;;1.20;100.00;95851.08;647398;212;42234;-78
2022/01/20 06:49:24;;;;;;;0.60;0.60;;;0.80;1.40;;;1.22;100.00;95846.42;646891;216;31645;-76
2022/01/20 06:52:07;;;;;;;0.68;0.60;;;0.80;1.40;;;1.23;100.00;95844.52;645363;216;42750;-77
2022/01/20 06:54:49;;;;;;;0.70;0.70;;;0.80;1.40;;;1.23;100.00;95847.13;646904;212;42122;-77
2022/01/20 06:57:30;;;;;;;1.40;0.80;;;0.90;1.40;;;1.29;100.00;95846.98;618792;226;31812;-76
2022/01/20 07:00:13;;;;;;;0.80;0.70;;;0.90;1.40;;;1.30;100.00;95843.00;647293;216;31535;-77
2022/01/20 07:02:55;;;;;;;1.10;0.65;;;0.90;1.40;;;1.24;100.00;95846.30;645996;216;31528;-76
2022/01/20 07:05:36;;;;;;;1.50;0.70;;;0.90;1.40;;;1.30;100.00;95848.02;616785;222;32018;-76
2022/01/20 07:08:22;;;;;;;1.00;0.70;;;0.90;1.40;;;1.30;100.00;95854.09;619787;226;42691;-76
2022/01/20 07:11:04;;;;;;;1.40;0.80;;;1.00;1.40;;;1.31;100.00;95863.30;647358;212;31492;-76
2022/01/20 07:13:46;;;;;;;1.90;1.30;;;1.00;1.40;;;1.37;100.00;95871.86;646523;216;42700;-76
2022/01/20 07:16:28;;;;;;;0.80;0.80;;;1.00;1.40;;;1.33;100.00;95859.77;620035;226;31916;-76
2022/01/20 07:19:09;;;;;;;1.10;0.80;;;1.00;1.40;;;1.32;100.00;95859.09;647299;216;42218;-77
2022/01/20 07:21:51;;;;;;;1.20;0.75;;;1.00;1.40;;;1.35;100.00;95865.30;647116;216;31533;-77
2022/01/20 07:24:33;;;;;;;0.82;0.62;;;1.00;1.40;;;1.32;100.00;95861.77;648047;216;31515;-76
2022/01/20 07:27:14;;;;;;;0.65;0.52;;;1.00;1.40;;;1.40;100.00;95866.62;617545;222;31939;-78
2022/01/20 07:29:56;;;;;;;0.60;0.60;;;1.00;1.40;;;1.35;100.00;95868.41;646530;216;31472;-77
2022/01/20 07:32:39;;;;;;;0.70;0.60;;;1.00;1.40;;;1.38;100.00;95872.14;645757;214;31496;-77
2022/01/20 07:35:52;;;;;;;1.10;1.00;;;1.00;1.40;;;1.39;100.00;95874.23;646696;216;31516;-77
2022/01/20 07:38:33;;;;;;;2.30;0.80;;;1.00;1.40;;;1.39;100.00;95876.81;619353;226;32047;-77
2022/01/20 07:41:15;;;;;;;1.00;0.90;;;1.10;1.40;;;1.36;100.00;95883.37;618952;222;31925;-77
2022/01/20 07:43:57;;;;;;;0.60;0.60;;;1.00;1.40;;;1.33;100.00;95873.00;646540;216;31557;-76
2022/01/20 07:46:39;;;;;;;0.68;0.68;;;1.00;1.40;;;1.38;100.00;95874.98;646739;212;31518;-76
2022/01/20 07:49:27;;;;;;;0.70;0.70;;;1.10;1.40;;;1.36;100.00;95879.64;646105;216;31609;-74
2022/01/20 07:52:07;;;;;;;0.40;0.40;;;1.00;1.40;;;1.35;100.00;95889.34;646931;216;31468;-74
2022/01/20 07:54:49;;;;;;;0.68;0.57;;;1.00;1.40;;;1.35;100.00;95880.14;646627;216;31518;-76
2022/01/20 07:57:31;;;;;;;0.60;0.60;;;1.00;1.40;;;1.39;100.00;95886.73;644721;212;31525;-74
2022/01/20 08:00:18;;;;;;;0.75;0.75;;;1.00;1.40;;;1.38;100.00;95889.08;645954;216;42759;-77
2022/01/20 08:03:03;;;;;;;0.80;0.80;;;1.00;1.40;;;1.39;100.00;95891.56;647020;216;31507;-77
2022/01/20 08:05:45;;;;;;;1.90;0.60;;;1.00;1.40;;;1.41;100.00;95895.72;647471;212;31832;-77
2022/01/20 08:08:27;;;;;;;0.40;0.32;;;1.00;1.40;;;1.45;100.00;95900.50;646982;212;32182;-76
2022/01/20 08:11:09;;;;;;;0.60;0.60;;;1.00;1.40;;;1.41;100.00;95899.87;646533;216;42713;-77
2022/01/20 08:13:51;;;;;;;0.50;0.50;;;1.10;1.40;;;1.41;100.00;95908.80;645855;216;43578;-76
2022/01/20 08:16:34;;;;;;;0.80;0.60;;;1.00;1.40;;;1.39;100.00;95915.54;646097;212;43278;-73
2022/01/20 08:19:19;;;;;;;0.70;0.60;;;1.00;1.40;;;1.38;100.00;95900.78;646860;212;31500;-76
2022/01/20 08:22:04;;;;;;;1.10;1.00;;;1.00;1.40;;;1.39;100.00;95912.38;645750;212;31587;-72
2022/01/20 08:24:51;;;;;;;0.40;0.40;;;1.00;1.40;;;1.39;100.00;95915.06;646268;212;42313;-73
2022/01/20 08:27:27;;;;;;;0.85;0.43;;;1.10;1.40;;;1.45;100.00;95912.18;646572;216;42232;-75
2022/01/20 08:30:09;;;;;;;0.90;0.60;;;1.10;1.40;;;1.43;100.00;95924.22;645639;212;42142;-74
2022/01/20 08:32:51;;;;;;;0.50;0.50;;;1.10;1.40;;;1.43;100.00;95918.28;646528;216;42147;-75
2022/01/20 08:35:51;;;;;;;0.57;0.57;;;1.10;1.40;;;1.42;100.00;95917.36;646672;212;31517;-73
2022/01/20 08:38:32;;;;;;;0.40;0.40;;;1.00;1.40;;;1.41;100.00;95924.50;646264;212;42123;-73
2022/01/20 08:41:14;;;;;;;0.70;0.70;;;1.10;1.40;;;1.39;100.00;95921.95;647178;216;41851;-73
2022/01/20 08:43:56;;;;;;;1.10;1.00;;;1.10;1.40;;;1.39;100.00;95927.62;646472;216;31482;-74
2022/01/20 08:46:41;;;;;;;1.00;0.70;;;1.10;1.40;;;1.32;100.00;95926.77;619960;222;31917;-72
2022/01/20 08:49:21;;;;;;;0.50;0.40;;;1.00;1.40;;;1.36;100.00;95932.73;647655;212;31521;-74
2022/01/20 08:54:37;;;;;;;0.40;0.40;;;1.10;1.40;;;1.48;100.00;95942.86;619318;222;42485;-75
2022/01/20 08:57:18;;;;;;;1.25;0.80;;;1.10;1.40;;;1.55;100.00;95946.40;647413;212;42117;-73
2022/01/20 09:00:00;;;;;;;0.65;0.65;;;1.10;1.40;;;1.55;100.00;95960.63;646597;216;42116;-75
2022/01/20 09:02:42;;;;;;;0.73;0.73;;;1.20;1.40;;;1.56;100.00;95960.09;645621;216;31884;-73
2022/01/20 09:05:30;;;;;;;0.70;0.50;;;1.20;1.40;;;1.58;100.00;95966.77;644577;216;31648;-76
2022/01/20 09:08:18;;;;;;;0.90;0.40;;;1.30;1.40;;;1.61;100.00;95966.09;647936;216;42180;-76
2022/01/20 09:10:59;;;;;;;1.40;0.77;;;1.30;1.40;;;1.65;100.00;95960.28;647002;216;42207;-76
2022/01/20 09:16:28;;;;;;;0.90;0.40;;;1.30;1.40;;;1.61;100.00;95949.47;646783;212;32094;-74
2022/01/20 09:19:09;;;;;;;0.40;0.40;;;1.30;1.40;;;1.63;100.00;95951.32;619620;226;32019;-75
2022/01/20 09:21:57;;;;;;;0.82;0.82;;;1.30;1.40;;;1.69;100.00;95945.64;647856;212;31511;-77
2022/01/20 09:24:45;;;;;;;0.83;0.83;;;1.30;1.40;;;1.77;100.00;95960.14;647560;216;31480;-76
2022/01/20 09:30:09;;;;;;;0.75;0.50;;;1.40;1.40;;;1.89;100.00;95973.12;648576;213;31467;-76
2022/01/20 09:32:58;;;;;;;1.00;0.43;;;1.40;1.40;;;1.93;100.00;95977.05;619637;222;42698;-73
2022/01/20 09:35:57;;;;;;;0.75;0.50;;;1.50;1.40;;;1.90;100.00;95969.47;616947;224;42616;-78
2022/01/20 09:38:45;;;;;;;0.70;0.43;;;1.60;1.40;;;2.01;100.00;95983.58;646240;216;31619;-75
2022/01/20 09:41:27;;;;;;;0.60;0.60;;;1.70;1.40;;;2.08;100.00;95984.23;646474;216;31781;-74
2022/01/20 09:44:14;;;;;;;1.20;0.90;;;1.70;1.40;;;2.04;100.00;95980.59;646961;216;31523;-77
2022/01/20 09:47:02;;;;;;;0.60;0.60;;;1.60;1.40;;;2.03;100.00;95986.93;646134;216;31502;-76
2022/01/20 09:49:47;;;;;;;0.60;0.45;;;1.60;1.40;;;2.04;100.00;95987.91;647563;212;31493;-77
2022/01/20 09:52:29;;;;;;;0.77;0.70;;;1.70;1.40;;;2.12;100.00;95990.78;619144;222;32000;-75
2022/01/20 09:55:16;;;;;;;0.55;0.55;;;1.70;1.40;;;2.09;100.00;95996.65;647267;216;31467;-74
2022/01/20 09:58:04;;;;;;;0.65;0.55;;;1.60;1.40;;;2.09;100.00;95991.52;648178;212;32154;-77
2022/01/20 10:00:46;;;;;;;1.20;1.10;;;1.70;1.40;;;2.02;100.00;95978.94;647693;216;31509;-77
2022/01/20 10:03:37;;;;;;;1.30;0.70;;;1.60;1.40;;;1.95;100.00;95976.23;646936;212;31550;-74
2022/01/20 10:06:19;;;;;;;1.20;0.70;;;1.50;1.40;;;2.02;100.00;95993.92;642723;216;31677;-76
2022/01/20 10:09:07;;;;;;;0.90;0.90;;;1.50;1.40;;;2.06;100.00;95988.74;648140;212;31630;-77
2022/01/20 10:11:48;;;;;;;1.30;0.70;;;1.60;1.40;;;2.05;100.00;95989.67;619712;222;31948;-77
2022/01/20 10:14:55;;;;;;;1.20;0.80;;;1.60;1.40;;;1.98;100.00;95997.05;645571;216;31499;-74
2022/01/20 10:17:38;;;;;;;1.92;0.98;;;1.50;1.40;;;1.82;100.00;96001.13;642826;215;31560;-74
2022/01/20 10:20:29;;;;;;;2.10;0.70;;;1.40;1.40;;;1.89;100.00;96015.05;647442;212;32289;-77
2022/01/20 10:23:16;;;;;;;0.70;0.70;;;1.40;1.40;;;1.89;100.00;96000.02;646290;216;31543;-73
2022/01/20 10:26:13;;;;;;;0.82;0.77;;;1.40;1.40;;;1.94;100.00;95997.88;647327;212;31607;-74
2022/01/20 10:29:03;;;;;;;1.83;0.70;;;1.40;1.40;;;1.94;100.00;95988.58;631172;223;31726;-80
2022/01/20 10:31:49;;;;;;;0.82;0.82;;;1.40;1.40;;;1.96;100.00;95979.00;647382;216;31560;-78
2022/01/20 10:35:52;;;;;;;0.98;0.88;;;1.50;1.40;;;2.10;100.00;95974.80;645067;212;31694;-75
2022/01/20 10:38:32;;;;;;;1.20;0.77;;;1.70;1.40;;;2.28;100.00;95972.50;646616;216;31482;-76
2022/01/20 10:41:14;;;;;;;0.50;0.50;;;1.80;1.40;;;2.41;100.00;95980.33;647315;216;42094;-76
2022/01/20 10:44:01;;;;;;;1.08;1.08;;;2.00;1.40;;;3.00;100.00;95982.73;646472;212;32140;-74
2022/01/20 10:46:45;;;;;;;0.80;0.80;;;2.70;1.40;;;3.21;100.00;95976.55;646300;212;31860;-74
2022/01/20 10:49:30;;;;;;;1.30;1.20;;;3.00;1.40;;;3.49;100.00;95980.52;618961;226;35314;-76
2022/01/20 10:52:13;;;;;;;0.68;0.68;;;3.60;1.40;;;4.02;100.00;95974.44;646941;216;31573;-78
2022/01/20 10:54:55;;;;;;;1.27;0.85;;;3.90;1.40;;;3.78;100.00;95988.05;647510;212;32368;-77
2022/01/20 10:57:36;;;;;;;2.35;1.33;;;3.00;1.40;;;3.30;100.00;95979.74;647345;212;32754;-77
2022/01/20 11:02:56;;;;;;;0.80;0.57;;;2.80;1.40;;;3.17;100.00;95970.06;646494;213;31470;-75
2022/01/20 11:05:39;;;;;;;1.80;1.48;;;2.80;1.40;;;3.33;100.00;95960.02;645336;212;33104;-75
2022/01/20 11:08:23;;;;;;;0.70;0.70;;;2.90;1.40;;;3.24;100.00;95967.86;646893;212;31507;-77
2022/01/20 11:11:05;;;;;;;0.80;0.73;;;2.90;1.40;;;3.13;100.00;95973.72;619803;226;31850;-76
2022/01/20 11:13:47;;;;;;;1.20;1.00;;;2.80;1.40;;;3.64;100.00;95966.81;619868;222;31920;-78
2022/01/20 11:19:18;;;;;;;0.80;0.70;;;5.50;1.40;;;5.21;100.00;95953.20;622152;222;31851;-77
2022/01/20 11:22:07;;;;;;;1.60;1.05;;;5.30;1.40;;;5.18;100.00;95964.06;647850;212;31585;-76
2022/01/20 11:24:58;;;;;;;0.90;0.80;;;4.00;1.40;;;3.88;100.00;95967.74;620280;226;32021;-77
2022/01/20 11:27:40;;;;;;;0.90;0.80;;;3.30;1.40;;;3.72;100.00;95972.20;646912;212;31542;-77
2022/01/20 11:30:24;;;;;;;1.15;0.90;;;3.30;1.40;;;3.85;100.00;95950.48;647520;216;31553;-80
2022/01/20 11:35:56;;;;;;;0.60;0.60;;;3.90;1.40;;;3.84;100.00;95943.39;646945;216;31545;-77
2022/01/20 11:38:37;;;;;;;1.00;0.90;;;3.40;1.40;;;3.88;100.00;95942.31;647238;216;31730;-77
2022/01/20 11:41:21;;;;;;;0.82;0.82;;;3.20;1.40;;;3.99;100.00;95939.80;648351;216;31489;-77
2022/01/20 11:44:08;;;;;;;0.50;0.50;;;3.30;1.40;;;3.86;100.00;95936.23;645304;216;31599;-75
2022/01/20 11:46:52;;;;;;;0.70;0.60;;;3.50;1.40;;;4.48;100.00;95942.86;647071;216;31529;-78
2022/01/20 11:49:37;;;;;;;0.60;0.50;;;4.10;1.40;;;4.26;100.00;95935.98;645715;212;31538;-78
2022/01/20 11:52:23;;;;;;;1.80;0.73;;;3.50;1.40;;;3.75;100.00;95928.81;646601;212;31824;-78
2022/01/20 11:55:06;;;;;;;1.40;0.70;;;3.20;1.40;;;4.02;100.00;95929.84;648699;212;31666;-78
2022/01/20 11:57:53;;;;;;;0.90;0.90;;;3.40;1.40;;;3.85;100.00;95929.14;618731;222;32027;-77
2022/01/20 12:00:41;;;;;;;1.30;0.90;;;3.30;1.40;;;4.54;100.00;95924.88;631424;221;31646;-78
2022/01/20 12:03:24;;;;;;;0.60;0.60;;;3.90;1.40;;;4.37;100.00;95933.97;647214;216;31556;-78
2022/01/20 12:06:14;;;;;;;0.95;0.73;;;4.90;1.40;;;5.69;100.00;95924.88;646739;212;32014;-77
2022/01/20 12:08:56;;;;;;;1.00;0.50;;;5.80;1.40;;;4.73;100.00;95925.88;645674;212;31917;-77
2022/01/20 12:11:47;;;;;;;1.00;1.00;;;3.90;1.40;;;4.27;100.00;95929.98;646495;216;31496;-76
2022/01/20 12:14:38;;;;;;;0.60;0.60;;;3.60;1.40;;;3.89;100.00;95919.53;645930;212;31510;-75
2022/01/20 12:17:20;;;;;;;0.50;0.40;;;3.50;1.40;;;4.09;100.00;95906.99;645375;215;31521;-74
2022/01/20 12:20:02;;;;;;;0.98;0.57;;;3.60;1.40;;;4.14;100.00;95919.22;618852;222;31877;-77
2022/01/20 12:22:44;;;;;;;1.40;0.60;;;4.00;1.40;;;4.53;100.00;95894.26;647042;212;31625;-77
2022/01/20 12:25:27;;;;;;;0.80;0.55;;;3.90;1.40;;;4.34;100.00;95881.08;646700;212;31524;-80
2022/01/20 12:28:11;;;;;;;0.50;0.40;;;3.60;1.40;;;4.01;100.00;95888.41;647131;216;31511;-74
2022/01/20 12:30:53;;;;;;;0.90;0.50;;;3.40;1.40;;;3.80;100.00;95889.07;646427;213;31510;-77
2022/01/20 12:35:52;;;;;;;1.15;0.82;;;3.10;1.40;;;3.63;100.00;95889.01;647837;212;31517;-77
2022/01/20 12:38:39;;;;;;;2.30;0.50;;;3.00;1.40;;;3.53;100.00;95883.55;646113;216;31540;-75
2022/01/20 12:41:27;;;;;;;0.70;0.70;;;3.00;1.40;;;3.37;100.00;95890.10;620540;222;32392;-77
2022/01/20 12:44:12;;;;;;;0.50;0.50;;;2.70;1.40;;;3.14;100.00;95884.53;643179;216;31474;-78
2022/01/20 12:46:52;;;;;;;0.77;0.77;;;2.60;1.40;;;2.97;100.00;95880.94;646813;216;31638;-75
2022/01/20 12:49:34;;;;;;;0.70;0.70;;;2.50;1.40;;;3.03;100.00;95870.83;646790;216;31866;-77
2022/01/20 12:52:16;;;;;;;0.50;0.50;;;2.50;1.40;;;3.03;100.00;95881.07;646234;216;31535;-74
2022/01/20 12:54:58;;;;;;;0.80;0.60;;;2.50;1.40;;;3.02;100.00;95872.53;645954;212;31525;-74
2022/01/20 12:57:45;;;;;;;0.60;0.60;;;2.60;1.40;;;3.07;100.00;95869.28;647368;216;31520;-78
2022/01/20 13:00:33;;;;;;;0.50;0.40;;;2.60;1.40;;;3.01;100.00;95890.78;645436;212;31576;-76
2022/01/20 13:03:15;;;;;;;0.80;0.60;;;2.50;1.40;;;2.96;100.00;95883.34;645714;216;31578;-77
2022/01/20 13:05:59;;;;;;;1.30;0.75;;;2.50;1.40;;;2.99;100.00;95884.98;615551;226;32172;-78
2022/01/20 13:09:04;;;;;;;0.70;0.70;;;2.40;1.40;;;2.97;100.00;95887.48;646165;212;31524;-75
2022/01/20 13:11:51;;;;;;;1.70;0.40;;;2.40;1.40;;;2.97;100.00;95881.44;646798;216;31520;-74
2022/01/20 13:14:42;;;;;;;0.50;0.50;;;2.40;1.40;;;3.00;100.00;95880.97;647056;216;31630;-78
2022/01/20 13:17:27;;;;;;;0.62;0.62;;;2.40;1.40;;;2.93;100.00;95883.94;647637;212;31523;-77
2022/01/20 13:20:21;;;;;;;0.62;0.45;;;2.40;1.40;;;2.83;100.00;95867.84;621008;226;31865;-76
2022/01/20 13:23:54;;;;;;;0.40;0.32;;;2.30;1.40;;;2.86;100.00;95867.78;646724;212;31616;-78